sensor_id;sensor_type;location;lat;lon;timestamp;P1;durP1;ratioP1;P2;durP2;ratioP2
9324;SDS011;4701;51.566;6.776;2023-03-14T06:15:33;10.73;;;4.28;;
9324;SDS011;4701;51.566;6.776;2023-03-14T06:17:38;21.77;;;4.70;;
9324;SDS011;4701;51.566;6.776;2023-03-14T06:19:44;21.30;;;5.13;;
9324;SDS011;4701;51.566;6.776;2023-03-14T06:21:47;22.83;;;5.35;;
9324;SDS011;4701;51.566;6.776;2023-03-14T06:23:49;50.03;;;7.45;;
9324;SDS011;4701;51.566;6.776;2023-03-14T06:25:52;25.90;;;6.32;;
9324;SDS011;4701;51.566;6.776;2023-03-14T06:27:56;36.88;;;6.63;;
9324;SDS011;4701;51.566;6.776;2023-03-14T06:29:58;17.45;;;4.05;;
9324;SDS011;4701;51.566;6.776;2023-03-14T06:32:02;20.05;;;3.80;;
9324;SDS011;4701;51.566;6.776;2023-03-14T06:34:05;12.23;;;3.20;;
9324;SDS011;4701;51.566;6.776;2023-03-14T06:36:07;6.50;;;2.20;;
9324;SDS011;4701;51.566;6.776;2023-03-14T06:38:11;12.05;;;2.35;;
9324;SDS011;4701;51.566;6.776;2023-03-14T06:40:13;4.68;;;1.60;;
9324;SDS011;4701;51.566;6.776;2023-03-14T06:42:38;5.95;;;2.00;;
9324;SDS011;4701;51.566;6.776;2023-03-14T06:44:40;2.90;;;1.10;;
9324;SDS011;4701;51.566;6.776;2023-03-14T06:46:41;3.88;;;1.02;;
9324;SDS011;4701;51.566;6.776;2023-03-14T06:48:45;7.68;;;2.47;;
9324;SDS011;4701;51.566;6.776;2023-03-14T06:50:48;10.80;;;2.95;;
9324;SDS011;4701;51.566;6.776;2023-03-14T06:52:50;7.32;;;2.55;;
9324;SDS011;4701;51.566;6.776;2023-03-14T06:54:56;5.40;;;2.13;;
9324;SDS011;4701;51.566;6.776;2023-03-14T06:56:58;4.22;;;2.00;;
9324;SDS011;4701;51.566;6.776;2023-03-14T06:59:00;5.18;;;1.90;;
9324;SDS011;4701;51.566;6.776;2023-03-14T07:01:05;11.88;;;1.75;;
9324;SDS011;4701;51.566;6.776;2023-03-14T07:03:14;7.70;;;1.65;;
9324;SDS011;4701;51.566;6.776;2023-03-14T07:05:20;10.85;;;1.80;;
9324;SDS011;4701;51.566;6.776;2023-03-14T07:07:22;8.45;;;1.88;;
9324;SDS011;4701;51.566;6.776;2023-03-14T07:09:24;3.70;;;1.30;;
9324;SDS011;4701;51.566;6.776;2023-03-14T07:11:31;3.00;;;1.50;;
9324;SDS011;4701;51.566;6.776;2023-03-14T07:13:33;2.23;;;1.10;;
9324;SDS011;4701;51.566;6.776;2023-03-14T07:15:40;2.25;;;1.27;;
9324;SDS011;4701;51.566;6.776;2023-03-14T07:17:44;3.65;;;1.02;;
9324;SDS011;4701;51.566;6.776;2023-03-14T07:19:48;2.25;;;0.80;;
9324;SDS011;4701;51.566;6.776;2023-03-14T07:21:51;2.88;;;0.60;;
9324;SDS011;4701;51.566;6.776;2023-03-14T07:23:57;1.70;;;0.68;;
9324;SDS011;4701;51.566;6.776;2023-03-14T07:25:59;0.40;;;0.40;;
9324;SDS011;4701;51.566;6.776;2023-03-14T07:28:01;1.90;;;0.70;;
9324;SDS011;4701;51.566;6.776;2023-03-14T07:30:04;1.15;;;0.63;;
9324;SDS011;4701;51.566;6.776;2023-03-14T07:32:07;1.45;;;0.50;;
9324;SDS011;4701;51.566;6.776;2023-03-14T07:34:09;5.53;;;1.25;;
9324;SDS011;4701;51.566;6.776;2023-03-14T07:36:15;8.35;;;1.08;;
9324;SDS011;4701;51.566;6.776;2023-03-14T07:38:20;3.22;;;1.20;;
9324;SDS011;4701;51.566;6.776;2023-03-14T07:40:39;5.30;;;1.00;;
9324;SDS011;4701;51.566;6.776;2023-03-14T07:42:42;2.53;;;1.00;;
9324;SDS011;4701;51.566;6.776;2023-03-14T07:44:58;4.32;;;0.80;;
9324;SDS011;4701;51.566;6.776;2023-03-14T07:47:00;0.75;;;0.60;;
9324;SDS011;4701;51.566;6.776;2023-03-14T07:49:02;1.70;;;0.60;;
9324;SDS011;4701;51.566;6.776;2023-03-14T07:51:04;2.85;;;0.75;;
9324;SDS011;4701;51.566;6.776;2023-03-14T07:53:06;1.13;;;0.80;;
9324;SDS011;4701;51.566;6.776;2023-03-14T07:55:10;0.93;;;0.70;;
9324;SDS011;4701;51.566;6.776;2023-03-14T07:57:13;1.17;;;0.60;;
9324;SDS011;4701;51.566;6.776;2023-03-14T07:59:15;0.80;;;0.40;;
9324;SDS011;4701;51.566;6.776;2023-03-14T08:01:17;0.80;;;0.30;;
9324;SDS011;4701;51.566;6.776;2023-03-14T08:03:19;1.55;;;0.52;;
9324;SDS011;4701;51.566;6.776;2023-03-14T08:05:21;0.60;;;0.40;;
9324;SDS011;4701;51.566;6.776;2023-03-14T08:07:23;1.83;;;0.50;;
9324;SDS011;4701;51.566;6.776;2023-03-14T08:09:25;1.48;;;0.60;;
9324;SDS011;4701;51.566;6.776;2023-03-14T08:11:28;6.88;;;1.05;;
9324;SDS011;4701;51.566;6.776;2023-03-14T08:13:30;3.90;;;0.70;;
9324;SDS011;4701;51.566;6.776;2023-03-14T08:15:32;0.82;;;0.60;;
9324;SDS011;4701;51.566;6.776;2023-03-14T08:17:34;1.15;;;0.50;;
9324;SDS011;4701;51.566;6.776;2023-03-14T08:19:36;5.45;;;0.88;;
9324;SDS011;4701;51.566;6.776;2023-03-14T08:21:38;5.65;;;1.38;;
9324;SDS011;4701;51.566;6.776;2023-03-14T08:23:40;10.65;;;1.90;;
9324;SDS011;4701;51.566;6.776;2023-03-14T08:25:42;17.77;;;3.28;;
9324;SDS011;4701;51.566;6.776;2023-03-14T08:27:46;21.10;;;5.00;;
9324;SDS011;4701;51.566;6.776;2023-03-14T08:29:48;23.90;;;4.75;;
9324;SDS011;4701;51.566;6.776;2023-03-14T08:31:50;31.52;;;5.65;;
9324;SDS011;4701;51.566;6.776;2023-03-14T08:33:51;14.00;;;2.83;;
9324;SDS011;4701;51.566;6.776;2023-03-14T08:35:53;9.27;;;1.65;;
9324;SDS011;4701;51.566;6.776;2023-03-14T08:37:56;5.72;;;1.65;;
9324;SDS011;4701;51.566;6.776;2023-03-14T08:39:58;10.68;;;1.83;;
9324;SDS011;4701;51.566;6.776;2023-03-14T08:42:00;7.68;;;1.90;;
9324;SDS011;4701;51.566;6.776;2023-03-14T08:44:03;7.68;;;1.80;;
9324;SDS011;4701;51.566;6.776;2023-03-14T08:46:05;8.98;;;2.20;;
9324;SDS011;4701;51.566;6.776;2023-03-14T08:48:07;10.52;;;1.88;;
9324;SDS011;4701;51.566;6.776;2023-03-14T08:50:09;7.47;;;1.52;;
9324;SDS011;4701;51.566;6.776;2023-03-14T08:52:12;5.30;;;1.20;;
9324;SDS011;4701;51.566;6.776;2023-03-14T08:54:16;3.63;;;0.93;;
9324;SDS011;4701;51.566;6.776;2023-03-14T08:56:18;1.95;;;0.70;;
9324;SDS011;4701;51.566;6.776;2023-03-14T08:58:20;1.98;;;0.80;;
9324;SDS011;4701;51.566;6.776;2023-03-14T09:00:25;1.63;;;1.20;;
9324;SDS011;4701;51.566;6.776;2023-03-14T09:02:27;1.88;;;0.60;;
9324;SDS011;4701;51.566;6.776;2023-03-14T09:04:29;2.28;;;0.77;;
9324;SDS011;4701;51.566;6.776;2023-03-14T09:06:30;0.93;;;0.60;;
9324;SDS011;4701;51.566;6.776;2023-03-14T09:08:32;1.38;;;0.80;;
9324;SDS011;4701;51.566;6.776;2023-03-14T09:10:34;1.55;;;0.70;;
9324;SDS011;4701;51.566;6.776;2023-03-14T09:12:36;1.13;;;0.47;;
9324;SDS011;4701;51.566;6.776;2023-03-14T09:14:38;1.15;;;0.50;;
9324;SDS011;4701;51.566;6.776;2023-03-14T09:16:42;0.63;;;0.60;;
9324;SDS011;4701;51.566;6.776;2023-03-14T09:18:43;1.13;;;0.40;;
9324;SDS011;4701;51.566;6.776;2023-03-14T09:20:45;0.73;;;0.40;;
9324;SDS011;4701;51.566;6.776;2023-03-14T09:22:47;1.17;;;0.40;;
9324;SDS011;4701;51.566;6.776;2023-03-14T09:24:49;0.82;;;0.40;;
9324;SDS011;4701;51.566;6.776;2023-03-14T09:26:51;1.02;;;0.47;;
9324;SDS011;4701;51.566;6.776;2023-03-14T09:28:53;0.73;;;0.30;;
9324;SDS011;4701;51.566;6.776;2023-03-14T09:30:55;1.50;;;0.30;;
9324;SDS011;4701;51.566;6.776;2023-03-14T09:32:59;0.77;;;0.30;;
9324;SDS011;4701;51.566;6.776;2023-03-14T09:35:01;1.38;;;0.35;;
9324;SDS011;4701;51.566;6.776;2023-03-14T09:37:03;0.63;;;0.15;;
9324;SDS011;4701;51.566;6.776;2023-03-14T09:39:05;0.35;;;0.32;;
9324;SDS011;4701;51.566;6.776;2023-03-14T09:41:14;0.65;;;0.30;;
9324;SDS011;4701;51.566;6.776;2023-03-14T09:43:20;0.32;;;0.30;;
9324;SDS011;4701;51.566;6.776;2023-03-14T09:45:26;0.30;;;0.30;;
9324;SDS011;4701;51.566;6.776;2023-03-14T09:47:30;0.60;;;0.30;;
9324;SDS011;4701;51.566;6.776;2023-03-14T09:49:34;1.10;;;0.28;;
9324;SDS011;4701;51.566;6.776;2023-03-14T09:51:38;0.30;;;0.20;;
9324;SDS011;4701;51.566;6.776;2023-03-14T09:53:48;0.25;;;0.20;;
9324;SDS011;4701;51.566;6.776;2023-03-14T09:55:57;0.43;;;0.20;;
9324;SDS011;4701;51.566;6.776;2023-03-14T09:58:00;0.30;;;0.30;;
9324;SDS011;4701;51.566;6.776;2023-03-14T10:00:06;0.60;;;0.20;;
9324;SDS011;4701;51.566;6.776;2023-03-14T10:02:17;0.40;;;0.20;;
9324;SDS011;4701;51.566;6.776;2023-03-14T10:04:21;0.30;;;0.20;;
9324;SDS011;4701;51.566;6.776;2023-03-14T10:06:26;4.18;;;0.98;;
9324;SDS011;4701;51.566;6.776;2023-03-14T10:08:29;5.07;;;1.45;;
9324;SDS011;4701;51.566;6.776;2023-03-14T10:10:32;4.13;;;1.55;;
9324;SDS011;4701;51.566;6.776;2023-03-14T10:12:35;2.53;;;1.35;;
9324;SDS011;4701;51.566;6.776;2023-03-14T10:14:44;4.05;;;1.27;;
9324;SDS011;4701;51.566;6.776;2023-03-14T10:16:48;1.75;;;0.98;;
9324;SDS011;4701;51.566;6.776;2023-03-14T10:18:50;4.70;;;1.45;;
9324;SDS011;4701;51.566;6.776;2023-03-14T10:21:01;2.78;;;1.48;;
9324;SDS011;4701;51.566;6.776;2023-03-14T10:23:18;3.42;;;1.10;;
9324;SDS011;4701;51.566;6.776;2023-03-14T10:25:25;2.72;;;0.90;;
9324;SDS011;4701;51.566;6.776;2023-03-14T10:27:30;2.63;;;1.00;;
9324;SDS011;4701;51.566;6.776;2023-03-14T10:29:34;1.35;;;0.82;;
9324;SDS011;4701;51.566;6.776;2023-03-14T10:31:52;2.42;;;0.60;;
9324;SDS011;4701;51.566;6.776;2023-03-14T10:33:59;1.73;;;0.68;;
9324;SDS011;4701;51.566;6.776;2023-03-14T10:36:03;2.78;;;0.60;;
9324;SDS011;4701;51.566;6.776;2023-03-14T10:38:18;1.75;;;0.60;;
9324;SDS011;4701;51.566;6.776;2023-03-14T10:40:20;1.60;;;0.50;;
9324;SDS011;4701;51.566;6.776;2023-03-14T10:42:28;2.10;;;0.40;;
9324;SDS011;4701;51.566;6.776;2023-03-14T10:44:32;1.15;;;0.70;;
9324;SDS011;4701;51.566;6.776;2023-03-14T11:13:19;2.22;;;0.43;;
9324;SDS011;4701;51.566;6.776;2023-03-14T11:15:27;2.22;;;0.57;;
9324;SDS011;4701;51.566;6.776;2023-03-14T11:17:34;2.28;;;0.40;;
9324;SDS011;4701;51.566;6.776;2023-03-14T11:19:49;0.45;;;0.35;;
9324;SDS011;4701;51.566;6.776;2023-03-14T11:22:05;0.50;;;0.30;;
9324;SDS011;4701;51.566;6.776;2023-03-14T11:24:25;0.63;;;0.32;;
9324;SDS011;4701;51.566;6.776;2023-03-14T11:26:41;0.35;;;0.25;;
9324;SDS011;4701;51.566;6.776;2023-03-14T11:28:50;0.52;;;0.30;;
9324;SDS011;4701;51.566;6.776;2023-03-14T11:30:59;0.30;;;0.20;;
9324;SDS011;4701;51.566;6.776;2023-03-14T11:33:07;0.28;;;0.28;;
9324;SDS011;4701;51.566;6.776;2023-03-14T11:35:22;0.82;;;0.20;;
9324;SDS011;4701;51.566;6.776;2023-03-14T11:37:29;0.73;;;0.20;;
9324;SDS011;4701;51.566;6.776;2023-03-14T11:39:38;0.22;;;0.20;;
9324;SDS011;4701;51.566;6.776;2023-03-14T11:41:42;0.20;;;0.20;;
9324;SDS011;4701;51.566;6.776;2023-03-14T11:43:47;0.30;;;0.20;;
9324;SDS011;4701;51.566;6.776;2023-03-14T11:45:50;0.47;;;0.20;;
9324;SDS011;4701;51.566;6.776;2023-03-14T11:47:56;0.22;;;0.20;;
9324;SDS011;4701;51.566;6.776;2023-03-14T11:50:05;0.20;;;0.20;;
9324;SDS011;4701;51.566;6.776;2023-03-14T11:52:19;0.20;;;0.20;;
9324;SDS011;4701;51.566;6.776;2023-03-14T11:54:26;0.03;;;0.03;;
9324;SDS011;4701;51.566;6.776;2023-03-14T11:56:37;0.30;;;0.10;;
9324;SDS011;4701;51.566;6.776;2023-03-14T11:58:47;0.10;;;0.10;;
9324;SDS011;4701;51.566;6.776;2023-03-14T12:00:56;0.10;;;0.10;;
9324;SDS011;4701;51.566;6.776;2023-03-14T12:03:00;0.57;;;0.10;;
9324;SDS011;4701;51.566;6.776;2023-03-14T12:07:51;0.20;;;0.10;;
9324;SDS011;4701;51.566;6.776;2023-03-14T12:10:18;0.68;;;0.20;;
9324;SDS011;4701;51.566;6.776;2023-03-14T12:12:21;0.20;;;0.20;;
9324;SDS011;4701;51.566;6.776;2023-03-14T12:14:26;0.32;;;0.20;;
9324;SDS011;4701;51.566;6.776;2023-03-14T12:16:31;0.13;;;0.10;;
9324;SDS011;4701;51.566;6.776;2023-03-14T12:18:36;0.00;;;0.00;;
9324;SDS011;4701;51.566;6.776;2023-03-14T12:20:40;0.28;;;0.20;;
9324;SDS011;4701;51.566;6.776;2023-03-14T12:22:42;0.20;;;0.13;;
9324;SDS011;4701;51.566;6.776;2023-03-14T12:24:49;0.68;;;0.22;;
9324;SDS011;4701;51.566;6.776;2023-03-14T12:26:54;0.43;;;0.20;;
9324;SDS011;4701;51.566;6.776;2023-03-14T12:29:09;0.20;;;0.20;;
9324;SDS011;4701;51.566;6.776;2023-03-14T12:33:42;0.73;;;0.28;;
9324;SDS011;4701;51.566;6.776;2023-03-14T12:35:46;0.20;;;0.15;;
9324;SDS011;4701;51.566;6.776;2023-03-14T12:37:49;0.17;;;0.17;;
9324;SDS011;4701;51.566;6.776;2023-03-14T12:39:58;0.20;;;0.20;;
9324;SDS011;4701;51.566;6.776;2023-03-14T12:42:13;0.43;;;0.22;;
9324;SDS011;4701;51.566;6.776;2023-03-14T12:46:51;0.95;;;0.52;;
9324;SDS011;4701;51.566;6.776;2023-03-14T12:48:56;0.30;;;0.28;;
9324;SDS011;4701;51.566;6.776;2023-03-14T12:51:12;0.10;;;0.10;;
9324;SDS011;4701;51.566;6.776;2023-03-14T12:55:58;0.38;;;0.25;;
9324;SDS011;4701;51.566;6.776;2023-03-14T12:58:08;0.10;;;0.10;;
9324;SDS011;4701;51.566;6.776;2023-03-14T13:00:19;0.55;;;0.28;;
9324;SDS011;4701;51.566;6.776;2023-03-14T13:02:24;0.10;;;0.10;;
9324;SDS011;4701;51.566;6.776;2023-03-14T13:04:28;0.30;;;0.22;;
9324;SDS011;4701;51.566;6.776;2023-03-14T13:06:48;0.20;;;0.20;;
9324;SDS011;4701;51.566;6.776;2023-03-14T13:08:54;0.35;;;0.20;;
9324;SDS011;4701;51.566;6.776;2023-03-14T13:10:58;0.17;;;0.17;;
9324;SDS011;4701;51.566;6.776;2023-03-14T13:13:01;0.17;;;0.10;;
9324;SDS011;4701;51.566;6.776;2023-03-14T13:15:17;0.25;;;0.20;;
9324;SDS011;4701;51.566;6.776;2023-03-14T13:17:24;0.10;;;0.10;;
9324;SDS011;4701;51.566;6.776;2023-03-14T13:19:28;0.30;;;0.20;;
9324;SDS011;4701;51.566;6.776;2023-03-14T13:21:34;0.35;;;0.20;;
9324;SDS011;4701;51.566;6.776;2023-03-14T13:23:37;0.17;;;0.17;;
9324;SDS011;4701;51.566;6.776;2023-03-14T13:25:39;0.20;;;0.10;;
9324;SDS011;4701;51.566;6.776;2023-03-14T13:27:43;0.47;;;0.20;;
9324;SDS011;4701;51.566;6.776;2023-03-14T13:29:45;0.22;;;0.22;;
9324;SDS011;4701;51.566;6.776;2023-03-14T13:31:47;1.40;;;0.10;;
9324;SDS011;4701;51.566;6.776;2023-03-14T13:33:58;0.15;;;0.10;;
9324;SDS011;4701;51.566;6.776;2023-03-14T13:36:01;0.93;;;0.15;;
9324;SDS011;4701;51.566;6.776;2023-03-14T13:38:04;0.30;;;0.30;;
9324;SDS011;4701;51.566;6.776;2023-03-14T13:40:17;1.65;;;0.30;;
9324;SDS011;4701;51.566;6.776;2023-03-14T13:42:21;2.15;;;0.47;;
9324;SDS011;4701;51.566;6.776;2023-03-14T13:44:29;0.20;;;0.20;;
9324;SDS011;4701;51.566;6.776;2023-03-14T13:46:33;1.17;;;0.20;;
9324;SDS011;4701;51.566;6.776;2023-03-14T13:48:43;0.30;;;0.30;;
9324;SDS011;4701;51.566;6.776;2023-03-14T13:50:51;0.28;;;0.20;;
9324;SDS011;4701;51.566;6.776;2023-03-14T13:52:55;0.25;;;0.15;;
9324;SDS011;4701;51.566;6.776;2023-03-14T13:54:59;0.45;;;0.30;;
9324;SDS011;4701;51.566;6.776;2023-03-14T13:57:04;0.55;;;0.20;;
9324;SDS011;4701;51.566;6.776;2023-03-14T13:59:20;1.23;;;0.30;;
9324;SDS011;4701;51.566;6.776;2023-03-14T14:01:24;1.42;;;0.35;;
9324;SDS011;4701;51.566;6.776;2023-03-14T14:03:30;0.38;;;0.20;;
9324;SDS011;4701;51.566;6.776;2023-03-14T14:05:33;0.47;;;0.40;;
9324;SDS011;4701;51.566;6.776;2023-03-14T14:07:37;0.75;;;0.20;;
9324;SDS011;4701;51.566;6.776;2023-03-14T14:09:40;0.80;;;0.43;;
9324;SDS011;4701;51.566;6.776;2023-03-14T14:11:45;0.75;;;0.25;;
9324;SDS011;4701;51.566;6.776;2023-03-14T14:13:53;0.20;;;0.20;;
9324;SDS011;4701;51.566;6.776;2023-03-14T14:15:56;0.15;;;0.15;;
9324;SDS011;4701;51.566;6.776;2023-03-14T14:18:05;0.20;;;0.10;;
9324;SDS011;4701;51.566;6.776;2023-03-14T14:20:11;0.35;;;0.30;;
9324;SDS011;4701;51.566;6.776;2023-03-14T14:22:18;2.45;;;0.85;;
9324;SDS011;4701;51.566;6.776;2023-03-14T14:24:22;2.05;;;0.90;;
9324;SDS011;4701;51.566;6.776;2023-03-14T14:26:25;12.23;;;2.05;;
9324;SDS011;4701;51.566;6.776;2023-03-14T14:28:29;12.57;;;2.10;;
9324;SDS011;4701;51.566;6.776;2023-03-14T14:30:35;7.25;;;1.50;;
9324;SDS011;4701;51.566;6.776;2023-03-14T14:32:38;8.93;;;1.75;;
9324;SDS011;4701;51.566;6.776;2023-03-14T14:34:43;3.15;;;1.10;;
9324;SDS011;4701;51.566;6.776;2023-03-14T14:36:49;3.70;;;1.10;;
9324;SDS011;4701;51.566;6.776;2023-03-14T14:38:52;1.67;;;0.90;;
9324;SDS011;4701;51.566;6.776;2023-03-14T14:40:58;0.90;;;0.50;;
9324;SDS011;4701;51.566;6.776;2023-03-14T14:43:02;1.40;;;0.70;;
9324;SDS011;4701;51.566;6.776;2023-03-14T14:45:09;4.07;;;0.60;;
9324;SDS011;4701;51.566;6.776;2023-03-14T14:47:15;0.93;;;0.50;;
9324;SDS011;4701;51.566;6.776;2023-03-14T14:49:19;0.43;;;0.40;;
9324;SDS011;4701;51.566;6.776;2023-03-14T14:51:30;1.38;;;0.40;;
9324;SDS011;4701;51.566;6.776;2023-03-14T14:53:36;1.17;;;0.40;;
9324;SDS011;4701;51.566;6.776;2023-03-14T14:55:40;0.93;;;0.50;;
9324;SDS011;4701;51.566;6.776;2023-03-14T14:57:48;0.82;;;0.30;;
9324;SDS011;4701;51.566;6.776;2023-03-14T14:59:51;0.60;;;0.30;;
9324;SDS011;4701;51.566;6.776;2023-03-14T15:01:56;0.52;;;0.30;;
9324;SDS011;4701;51.566;6.776;2023-03-14T15:03:59;1.30;;;0.32;;
9324;SDS011;4701;51.566;6.776;2023-03-14T15:06:02;0.30;;;0.20;;
9324;SDS011;4701;51.566;6.776;2023-03-14T15:08:09;0.25;;;0.20;;
9324;SDS011;4701;51.566;6.776;2023-03-14T15:10:12;3.50;;;0.80;;
9324;SDS011;4701;51.566;6.776;2023-03-14T15:12:15;6.95;;;1.48;;
9324;SDS011;4701;51.566;6.776;2023-03-14T15:14:21;5.18;;;1.27;;
9324;SDS011;4701;51.566;6.776;2023-03-14T15:16:27;4.90;;;1.70;;
9324;SDS011;4701;51.566;6.776;2023-03-14T15:18:40;1.85;;;0.90;;
9324;SDS011;4701;51.566;6.776;2023-03-14T15:20:44;2.25;;;1.10;;
9324;SDS011;4701;51.566;6.776;2023-03-14T15:22:47;1.38;;;0.82;;
9324;SDS011;4701;51.566;6.776;2023-03-14T15:24:51;1.70;;;0.80;;
9324;SDS011;4701;51.566;6.776;2023-03-14T15:26:53;1.90;;;0.70;;
9324;SDS011;4701;51.566;6.776;2023-03-14T15:28:57;1.00;;;0.80;;
9324;SDS011;4701;51.566;6.776;2023-03-14T15:31:15;2.03;;;0.75;;
9324;SDS011;4701;51.566;6.776;2023-03-14T15:33:18;1.35;;;0.75;;
9324;SDS011;4701;51.566;6.776;2023-03-14T15:35:21;1.80;;;0.63;;
9324;SDS011;4701;51.566;6.776;2023-03-14T15:37:25;1.80;;;0.68;;
9324;SDS011;4701;51.566;6.776;2023-03-14T15:39:27;2.08;;;0.80;;
9324;SDS011;4701;51.566;6.776;2023-03-14T15:41:32;2.67;;;0.70;;
9324;SDS011;4701;51.566;6.776;2023-03-14T15:43:35;2.25;;;1.00;;
9324;SDS011;4701;51.566;6.776;2023-03-14T15:45:37;2.80;;;1.20;;
9324;SDS011;4701;51.566;6.776;2023-03-14T15:47:41;2.10;;;1.00;;
9324;SDS011;4701;51.566;6.776;2023-03-14T15:49:43;1.30;;;0.80;;
9324;SDS011;4701;51.566;6.776;2023-03-14T15:51:47;1.98;;;0.90;;
9324;SDS011;4701;51.566;6.776;2023-03-14T15:53:50;2.28;;;0.93;;
9324;SDS011;4701;51.566;6.776;2023-03-14T15:55:53;2.38;;;0.70;;
9324;SDS011;4701;51.566;6.776;2023-03-14T15:57:57;1.70;;;0.80;;
9324;SDS011;4701;51.566;6.776;2023-03-14T15:59:59;1.90;;;1.00;;
9324;SDS011;4701;51.566;6.776;2023-03-14T16:02:05;1.10;;;0.73;;
9324;SDS011;4701;51.566;6.776;2023-03-14T16:04:07;1.45;;;0.80;;
9324;SDS011;4701;51.566;6.776;2023-03-14T16:06:09;0.85;;;0.73;;
9324;SDS011;4701;51.566;6.776;2023-03-14T16:08:11;0.95;;;0.52;;
9324;SDS011;4701;51.566;6.776;2023-03-14T16:10:13;1.00;;;0.45;;
9324;SDS011;4701;51.566;6.776;2023-03-14T16:12:19;0.95;;;0.68;;
9324;SDS011;4701;51.566;6.776;2023-03-14T16:14:28;1.05;;;0.40;;
9324;SDS011;4701;51.566;6.776;2023-03-14T16:16:33;1.05;;;0.50;;
9324;SDS011;4701;51.566;6.776;2023-03-14T16:18:38;4.80;;;1.75;;
9324;SDS011;4701;51.566;6.776;2023-03-14T16:20:40;5.80;;;1.70;;
9324;SDS011;4701;51.566;6.776;2023-03-14T16:22:42;4.70;;;1.63;;
9324;SDS011;4701;51.566;6.776;2023-03-14T16:24:47;3.42;;;1.52;;
9324;SDS011;4701;51.566;6.776;2023-03-14T16:26:49;11.98;;;2.60;;
9324;SDS011;4701;51.566;6.776;2023-03-14T16:28:51;25.52;;;4.55;;
9324;SDS011;4701;51.566;6.776;2023-03-14T16:31:06;25.10;;;5.50;;
9324;SDS011;4701;51.566;6.776;2023-03-14T16:33:10;27.25;;;7.13;;
9324;SDS011;4701;51.566;6.776;2023-03-14T16:35:12;25.42;;;5.95;;
9324;SDS011;4701;51.566;6.776;2023-03-14T16:37:14;18.25;;;5.22;;
9324;SDS011;4701;51.566;6.776;2023-03-14T16:39:16;16.35;;;4.22;;
9324;SDS011;4701;51.566;6.776;2023-03-14T16:41:19;9.85;;;3.03;;
9324;SDS011;4701;51.566;6.776;2023-03-14T16:43:22;8.45;;;2.53;;
9324;SDS011;4701;51.566;6.776;2023-03-14T16:45:24;7.07;;;2.90;;
9324;SDS011;4701;51.566;6.776;2023-03-14T16:47:28;11.35;;;3.97;;
9324;SDS011;4701;51.566;6.776;2023-03-14T16:49:30;24.50;;;7.25;;
9324;SDS011;4701;51.566;6.776;2023-03-14T16:51:32;33.55;;;9.65;;
9324;SDS011;4701;51.566;6.776;2023-03-14T16:53:34;35.00;;;9.40;;
9324;SDS011;4701;51.566;6.776;2023-03-14T16:55:39;19.05;;;6.95;;
9324;SDS011;4701;51.566;6.776;2023-03-14T16:57:41;20.35;;;6.20;;
9324;SDS011;4701;51.566;6.776;2023-03-14T16:59:43;14.18;;;5.10;;
9324;SDS011;4701;51.566;6.776;2023-03-14T17:01:45;12.13;;;4.55;;
9324;SDS011;4701;51.566;6.776;2023-03-14T17:03:50;12.70;;;3.60;;
9324;SDS011;4701;51.566;6.776;2023-03-14T17:05:52;8.32;;;3.05;;
9324;SDS011;4701;51.566;6.776;2023-03-14T17:07:54;5.80;;;2.90;;
9324;SDS011;4701;51.566;6.776;2023-03-14T17:09:56;5.95;;;2.60;;
9324;SDS011;4701;51.566;6.776;2023-03-14T17:11:58;4.55;;;1.98;;
9324;SDS011;4701;51.566;6.776;2023-03-14T17:14:01;2.95;;;1.45;;
9324;SDS011;4701;51.566;6.776;2023-03-14T17:16:03;3.28;;;1.55;;
9324;SDS011;4701;51.566;6.776;2023-03-14T17:18:05;2.40;;;1.27;;
9324;SDS011;4701;51.566;6.776;2023-03-14T17:20:10;3.13;;;1.30;;
9324;SDS011;4701;51.566;6.776;2023-03-14T17:22:12;2.25;;;0.90;;
9324;SDS011;4701;51.566;6.776;2023-03-14T17:24:14;2.30;;;0.95;;
9324;SDS011;4701;51.566;6.776;2023-03-14T17:26:16;2.00;;;0.85;;
9324;SDS011;4701;51.566;6.776;2023-03-14T17:28:18;2.35;;;0.63;;
9324;SDS011;4701;51.566;6.776;2023-03-14T17:30:21;2.05;;;0.50;;
9324;SDS011;4701;51.566;6.776;2023-03-14T17:32:23;0.68;;;0.47;;
9324;SDS011;4701;51.566;6.776;2023-03-14T17:34:26;1.70;;;0.50;;
9324;SDS011;4701;51.566;6.776;2023-03-14T17:36:29;1.60;;;0.65;;
9324;SDS011;4701;51.566;6.776;2023-03-14T17:38:33;2.25;;;0.73;;
9324;SDS011;4701;51.566;6.776;2023-03-14T17:40:35;0.60;;;0.40;;
9324;SDS011;4701;51.566;6.776;2023-03-14T17:42:37;0.63;;;0.30;;
9324;SDS011;4701;51.566;6.776;2023-03-14T17:44:39;0.90;;;0.60;;
9324;SDS011;4701;51.566;6.776;2023-03-14T17:46:42;1.33;;;0.75;;
9324;SDS011;4701;51.566;6.776;2023-03-14T17:48:45;0.40;;;0.40;;
9324;SDS011;4701;51.566;6.776;2023-03-14T17:50:48;1.05;;;0.40;;
9324;SDS011;4701;51.566;6.776;2023-03-14T17:52:52;0.30;;;0.30;;
9324;SDS011;4701;51.566;6.776;2023-03-14T17:54:54;0.75;;;0.40;;
9324;SDS011;4701;51.566;6.776;2023-03-14T17:56:56;0.70;;;0.40;;
9324;SDS011;4701;51.566;6.776;2023-03-14T17:58:57;7.85;;;1.20;;
9324;SDS011;4701;51.566;6.776;2023-03-14T18:01:06;16.00;;;2.90;;
9324;SDS011;4701;51.566;6.776;2023-03-14T18:03:10;11.65;;;3.05;;
9324;SDS011;4701;51.566;6.776;2023-03-14T18:05:12;12.63;;;2.30;;
9324;SDS011;4701;51.566;6.776;2023-03-14T18:07:14;10.23;;;2.00;;
9324;SDS011;4701;51.566;6.776;2023-03-14T18:09:17;6.65;;;1.73;;
9324;SDS011;4701;51.566;6.776;2023-03-14T18:11:19;7.70;;;1.80;;
9324;SDS011;4701;51.566;6.776;2023-03-14T18:13:21;8.15;;;1.50;;
9324;SDS011;4701;51.566;6.776;2023-03-14T18:15:23;2.85;;;1.33;;
9324;SDS011;4701;51.566;6.776;2023-03-14T18:17:24;1.88;;;0.90;;
9324;SDS011;4701;51.566;6.776;2023-03-14T18:19:26;3.42;;;1.02;;
9324;SDS011;4701;51.566;6.776;2023-03-14T18:21:28;1.55;;;0.75;;
9324;SDS011;4701;51.566;6.776;2023-03-14T18:23:30;1.77;;;0.77;;
9324;SDS011;4701;51.566;6.776;2023-03-14T18:25:33;1.27;;;0.50;;
9324;SDS011;4701;51.566;6.776;2023-03-14T18:27:35;1.27;;;0.80;;
9324;SDS011;4701;51.566;6.776;2023-03-14T18:29:38;1.42;;;0.50;;
9324;SDS011;4701;51.566;6.776;2023-03-14T18:31:41;1.33;;;0.80;;
9324;SDS011;4701;51.566;6.776;2023-03-14T18:33:44;0.93;;;0.70;;
9324;SDS011;4701;51.566;6.776;2023-03-14T18:35:46;1.95;;;0.52;;
9324;SDS011;4701;51.566;6.776;2023-03-14T18:37:50;1.25;;;0.70;;
9324;SDS011;4701;51.566;6.776;2023-03-14T18:39:52;2.50;;;1.00;;
9324;SDS011;4701;51.566;6.776;2023-03-14T18:41:55;8.15;;;1.50;;
9324;SDS011;4701;51.566;6.776;2023-03-14T18:43:57;6.05;;;1.65;;
9324;SDS011;4701;51.566;6.776;2023-03-14T18:45:58;7.03;;;1.40;;
9324;SDS011;4701;51.566;6.776;2023-03-14T18:48:01;4.68;;;1.38;;
9324;SDS011;4701;51.566;6.776;2023-03-14T18:50:03;3.58;;;1.17;;
9324;SDS011;4701;51.566;6.776;2023-03-14T18:52:06;1.98;;;0.85;;
9324;SDS011;4701;51.566;6.776;2023-03-14T18:54:08;2.00;;;0.80;;
9324;SDS011;4701;51.566;6.776;2023-03-14T18:56:10;1.58;;;0.73;;
9324;SDS011;4701;51.566;6.776;2023-03-14T18:58:13;3.33;;;1.00;;
9324;SDS011;4701;51.566;6.776;2023-03-14T19:00:16;1.38;;;0.90;;
9324;SDS011;4701;51.566;6.776;2023-03-14T19:02:19;2.80;;;1.08;;
9324;SDS011;4701;51.566;6.776;2023-03-14T19:04:21;1.58;;;1.00;;
9324;SDS011;4701;51.566;6.776;2023-03-14T19:06:23;0.93;;;0.70;;
9324;SDS011;4701;51.566;6.776;2023-03-14T19:08:25;0.93;;;0.50;;
9324;SDS011;4701;51.566;6.776;2023-03-14T19:10:28;1.38;;;0.70;;
9324;SDS011;4701;51.566;6.776;2023-03-14T19:12:32;1.80;;;0.43;;
9324;SDS011;4701;51.566;6.776;2023-03-14T19:14:36;1.33;;;0.47;;
9324;SDS011;4701;51.566;6.776;2023-03-14T19:16:37;2.95;;;0.52;;
9324;SDS011;4701;51.566;6.776;2023-03-14T19:18:40;2.75;;;0.70;;
9324;SDS011;4701;51.566;6.776;2023-03-14T19:20:42;3.42;;;1.13;;
9324;SDS011;4701;51.566;6.776;2023-03-14T19:22:44;1.00;;;0.50;;
9324;SDS011;4701;51.566;6.776;2023-03-14T19:24:47;0.70;;;0.70;;
9324;SDS011;4701;51.566;6.776;2023-03-14T19:26:49;1.98;;;0.40;;
9324;SDS011;4701;51.566;6.776;2023-03-14T19:29:25;1.67;;;0.50;;
9324;SDS011;4701;51.566;6.776;2023-03-14T19:31:31;0.60;;;0.30;;
9324;SDS011;4701;51.566;6.776;2023-03-14T19:33:33;0.75;;;0.40;;
9324;SDS011;4701;51.566;6.776;2023-03-14T19:35:39;1.02;;;0.30;;
9324;SDS011;4701;51.566;6.776;2023-03-14T19:37:41;0.85;;;0.40;;
9324;SDS011;4701;51.566;6.776;2023-03-14T19:39:47;0.30;;;0.20;;
9324;SDS011;4701;51.566;6.776;2023-03-14T19:41:49;0.10;;;0.10;;
9324;SDS011;4701;51.566;6.776;2023-03-14T19:43:56;1.55;;;0.43;;
9324;SDS011;4701;51.566;6.776;2023-03-14T19:46:00;5.00;;;2.13;;